sensor_id;sensor_type;location;lat;lon;timestamp;P1;durP1;ratioP1;P2;durP2;ratioP2
85332;SDS011;75747;53.652;10.168;2024-03-23T00:55:27;7.93;;;3.00;;
85332;SDS011;75747;53.652;10.168;2024-03-23T00:57:53;12.20;;;3.23;;
85332;SDS011;75747;53.652;10.168;2024-03-23T01:00:18;10.07;;;3.43;;
85332;SDS011;75747;53.652;10.168;2024-03-23T01:02:44;6.80;;;3.33;;
85332;SDS011;75747;53.652;10.168;2024-03-23T01:05:09;9.80;;;3.40;;
85332;SDS011;75747;53.652;10.168;2024-03-23T01:07:35;6.47;;;2.73;;
85332;SDS011;75747;53.652;10.168;2024-03-23T01:10:01;6.30;;;3.00;;
85332;SDS011;75747;53.652;10.168;2024-03-23T01:12:27;10.10;;;2.77;;
85332;SDS011;75747;53.652;10.168;2024-03-23T01:14:52;7.73;;;2.57;;
85332;SDS011;75747;53.652;10.168;2024-03-23T01:17:18;10.40;;;3.13;;
85332;SDS011;75747;53.652;10.168;2024-03-23T01:19:43;10.20;;;2.70;;
85332;SDS011;75747;53.652;10.168;2024-03-23T01:22:09;11.60;;;3.10;;
85332;SDS011;75747;53.652;10.168;2024-03-23T01:24:35;5.40;;;3.00;;
85332;SDS011;75747;53.652;10.168;2024-03-23T01:27:01;9.63;;;2.97;;
85332;SDS011;75747;53.652;10.168;2024-03-23T01:29:26;7.87;;;2.97;;
85332;SDS011;75747;53.652;10.168;2024-03-23T01:31:52;5.80;;;2.80;;
85332;SDS011;75747;53.652;10.168;2024-03-23T01:34:18;7.47;;;3.33;;
85332;SDS011;75747;53.652;10.168;2024-03-23T01:36:45;7.80;;;3.00;;
85332;SDS011;75747;53.652;10.168;2024-03-23T01:39:11;11.93;;;2.70;;
85332;SDS011;75747;53.652;10.168;2024-03-23T01:41:37;13.37;;;3.27;;
85332;SDS011;75747;53.652;10.168;2024-03-23T01:44:07;14.50;;;4.10;;
85332;SDS011;75747;53.652;10.168;2024-03-23T01:46:33;8.07;;;2.80;;
85332;SDS011;75747;53.652;10.168;2024-03-23T01:48:59;8.93;;;3.23;;
85332;SDS011;75747;53.652;10.168;2024-03-23T01:51:25;10.93;;;3.00;;
85332;SDS011;75747;53.652;10.168;2024-03-23T01:53:51;12.13;;;2.47;;
85332;SDS011;75747;53.652;10.168;2024-03-23T01:56:19;19.40;;;3.67;;
85332;SDS011;75747;53.652;10.168;2024-03-23T01:58:45;7.17;;;2.70;;
85332;SDS011;75747;53.652;10.168;2024-03-23T02:01:11;10.50;;;2.83;;
85332;SDS011;75747;53.652;10.168;2024-03-23T02:03:37;6.53;;;2.80;;
85332;SDS011;75747;53.652;10.168;2024-03-23T02:06:02;7.93;;;2.90;;
85332;SDS011;75747;53.652;10.168;2024-03-23T02:08:29;11.47;;;3.13;;
85332;SDS011;75747;53.652;10.168;2024-03-23T02:10:56;6.60;;;3.00;;
85332;SDS011;75747;53.652;10.168;2024-03-23T02:13:23;10.43;;;2.80;;
85332;SDS011;75747;53.652;10.168;2024-03-23T02:15:49;5.13;;;2.30;;
85332;SDS011;75747;53.652;10.168;2024-03-23T02:18:14;14.10;;;3.70;;
85332;SDS011;75747;53.652;10.168;2024-03-23T02:20:40;10.43;;;3.10;;
85332;SDS011;75747;53.652;10.168;2024-03-23T02:23:09;11.23;;;3.63;;
85332;SDS011;75747;53.652;10.168;2024-03-23T02:25:38;7.47;;;2.80;;
85332;SDS011;75747;53.652;10.168;2024-03-23T02:28:04;9.10;;;2.77;;
85332;SDS011;75747;53.652;10.168;2024-03-23T02:30:30;6.53;;;2.90;;
85332;SDS011;75747;53.652;10.168;2024-03-23T02:32:55;9.30;;;3.47;;
85332;SDS011;75747;53.652;10.168;2024-03-23T02:35:21;6.00;;;3.20;;
85332;SDS011;75747;53.652;10.168;2024-03-23T02:37:47;7.03;;;3.20;;
85332;SDS011;75747;53.652;10.168;2024-03-23T02:40:15;8.03;;;3.10;;
85332;SDS011;75747;53.652;10.168;2024-03-23T02:42:42;5.53;;;2.63;;
85332;SDS011;75747;53.652;10.168;2024-03-23T02:45:08;6.67;;;2.47;;
85332;SDS011;75747;53.652;10.168;2024-03-23T02:47:33;4.17;;;2.27;;
85332;SDS011;75747;53.652;10.168;2024-03-23T02:49:59;5.00;;;2.20;;
85332;SDS011;75747;53.652;10.168;2024-03-23T02:52:25;4.83;;;2.77;;
85332;SDS011;75747;53.652;10.168;2024-03-23T02:54:50;4.63;;;2.37;;
85332;SDS011;75747;53.652;10.168;2024-03-23T02:57:16;2.67;;;1.73;;
85332;SDS011;75747;53.652;10.168;2024-03-23T02:59:42;12.90;;;3.23;;
85332;SDS011;75747;53.652;10.168;2024-03-23T03:02:07;4.67;;;2.30;;
85332;SDS011;75747;53.652;10.168;2024-03-23T03:04:33;12.53;;;3.10;;
85332;SDS011;75747;53.652;10.168;2024-03-23T03:07:00;6.87;;;2.77;;
85332;SDS011;75747;53.652;10.168;2024-03-23T03:09:25;5.77;;;2.40;;
85332;SDS011;75747;53.652;10.168;2024-03-23T03:11:51;7.67;;;3.20;;
85332;SDS011;75747;53.652;10.168;2024-03-23T03:14:17;9.70;;;3.67;;
85332;SDS011;75747;53.652;10.168;2024-03-23T03:16:42;3.03;;;2.63;;
85332;SDS011;75747;53.652;10.168;2024-03-23T03:19:08;5.40;;;2.50;;
85332;SDS011;75747;53.652;10.168;2024-03-23T03:21:35;7.13;;;2.50;;
85332;SDS011;75747;53.652;10.168;2024-03-23T03:24:01;5.60;;;2.30;;
85332;SDS011;75747;53.652;10.168;2024-03-23T03:26:27;14.43;;;3.37;;
85332;SDS011;75747;53.652;10.168;2024-03-23T03:28:53;10.07;;;2.90;;
85332;SDS011;75747;53.652;10.168;2024-03-23T03:31:18;13.33;;;3.33;;
85332;SDS011;75747;53.652;10.168;2024-03-23T03:33:44;12.63;;;3.67;;
85332;SDS011;75747;53.652;10.168;2024-03-23T03:36:10;8.53;;;3.10;;
85332;SDS011;75747;53.652;10.168;2024-03-23T03:38:36;8.67;;;2.90;;
85332;SDS011;75747;53.652;10.168;2024-03-23T03:41:03;7.53;;;2.30;;
85332;SDS011;75747;53.652;10.168;2024-03-23T03:43:29;12.13;;;3.47;;
85332;SDS011;75747;53.652;10.168;2024-03-23T03:45:55;7.80;;;3.13;;
85332;SDS011;75747;53.652;10.168;2024-03-23T03:48:22;10.67;;;4.13;;
85332;SDS011;75747;53.652;10.168;2024-03-23T03:50:48;8.60;;;2.90;;
85332;SDS011;75747;53.652;10.168;2024-03-23T03:53:14;12.00;;;2.50;;
85332;SDS011;75747;53.652;10.168;2024-03-23T03:55:39;8.00;;;2.70;;
85332;SDS011;75747;53.652;10.168;2024-03-23T03:58:05;15.63;;;3.30;;
85332;SDS011;75747;53.652;10.168;2024-03-23T04:00:31;11.97;;;4.27;;
85332;SDS011;75747;53.652;10.168;2024-03-23T04:02:56;10.80;;;3.53;;
85332;SDS011;75747;53.652;10.168;2024-03-23T04:05:22;15.90;;;4.03;;
85332;SDS011;75747;53.652;10.168;2024-03-23T04:07:48;4.10;;;2.30;;
85332;SDS011;75747;53.652;10.168;2024-03-23T04:10:14;3.67;;;2.87;;
85332;SDS011;75747;53.652;10.168;2024-03-23T04:12:40;7.33;;;2.90;;
85332;SDS011;75747;53.652;10.168;2024-03-23T04:15:06;4.60;;;2.40;;
85332;SDS011;75747;53.652;10.168;2024-03-23T04:17:32;10.90;;;3.37;;
85332;SDS011;75747;53.652;10.168;2024-03-23T04:19:59;6.13;;;3.40;;
85332;SDS011;75747;53.652;10.168;2024-03-23T04:22:26;10.67;;;3.60;;
85332;SDS011;75747;53.652;10.168;2024-03-23T04:24:55;15.87;;;3.20;;
85332;SDS011;75747;53.652;10.168;2024-03-23T04:27:22;14.23;;;2.97;;
85332;SDS011;75747;53.652;10.168;2024-03-23T04:29:51;7.30;;;2.70;;
85332;SDS011;75747;53.652;10.168;2024-03-23T04:32:17;7.20;;;3.57;;
85332;SDS011;75747;53.652;10.168;2024-03-23T04:34:43;10.27;;;3.63;;
85332;SDS011;75747;53.652;10.168;2024-03-23T04:37:10;2.80;;;2.40;;
85332;SDS011;75747;53.652;10.168;2024-03-23T04:39:36;7.30;;;3.10;;
85332;SDS011;75747;53.652;10.168;2024-03-23T04:42:03;3.83;;;2.53;;
85332;SDS011;75747;53.652;10.168;2024-03-23T04:44:30;3.17;;;2.30;;
85332;SDS011;75747;53.652;10.168;2024-03-23T04:46:56;4.00;;;2.53;;
85332;SDS011;75747;53.652;10.168;2024-03-23T04:49:22;7.73;;;2.93;;
85332;SDS011;75747;53.652;10.168;2024-03-23T04:51:48;4.37;;;2.70;;
85332;SDS011;75747;53.652;10.168;2024-03-23T04:54:13;5.23;;;2.77;;
85332;SDS011;75747;53.652;10.168;2024-03-23T04:56:39;2.73;;;2.50;;
85332;SDS011;75747;53.652;10.168;2024-03-23T04:59:05;10.03;;;3.23;;
85332;SDS011;75747;53.652;10.168;2024-03-23T05:01:33;5.63;;;2.73;;
85332;SDS011;75747;53.652;10.168;2024-03-23T05:03:59;10.83;;;3.03;;
85332;SDS011;75747;53.652;10.168;2024-03-23T05:06:26;6.87;;;3.03;;
85332;SDS011;75747;53.652;10.168;2024-03-23T05:08:52;8.43;;;3.47;;
85332;SDS011;75747;53.652;10.168;2024-03-23T05:11:17;7.07;;;3.17;;
85332;SDS011;75747;53.652;10.168;2024-03-23T05:13:43;4.97;;;2.90;;
85332;SDS011;75747;53.652;10.168;2024-03-23T05:16:09;3.60;;;2.67;;
85332;SDS011;75747;53.652;10.168;2024-03-23T05:18:35;5.07;;;2.80;;
85332;SDS011;75747;53.652;10.168;2024-03-23T05:21:00;8.60;;;3.33;;
85332;SDS011;75747;53.652;10.168;2024-03-23T05:23:26;3.73;;;2.93;;
85332;SDS011;75747;53.652;10.168;2024-03-23T05:25:54;4.80;;;2.87;;
85332;SDS011;75747;53.652;10.168;2024-03-23T05:28:20;7.10;;;2.20;;
85332;SDS011;75747;53.652;10.168;2024-03-23T05:30:50;7.83;;;3.17;;
85332;SDS011;75747;53.652;10.168;2024-03-23T05:33:17;8.80;;;3.47;;
85332;SDS011;75747;53.652;10.168;2024-03-23T05:35:44;8.67;;;3.43;;
85332;SDS011;75747;53.652;10.168;2024-03-23T05:38:10;9.57;;;2.70;;
85332;SDS011;75747;53.652;10.168;2024-03-23T05:40:35;8.47;;;3.17;;
85332;SDS011;75747;53.652;10.168;2024-03-23T05:43:02;5.80;;;3.10;;
85332;SDS011;75747;53.652;10.168;2024-03-23T05:45:28;9.70;;;2.87;;
85332;SDS011;75747;53.652;10.168;2024-03-23T05:47:54;6.13;;;2.70;;
85332;SDS011;75747;53.652;10.168;2024-03-23T05:50:22;11.50;;;2.60;;
85332;SDS011;75747;53.652;10.168;2024-03-23T05:52:48;5.90;;;2.80;;
85332;SDS011;75747;53.652;10.168;2024-03-23T05:55:14;4.27;;;2.63;;
85332;SDS011;75747;53.652;10.168;2024-03-23T05:57:40;7.03;;;3.00;;
85332;SDS011;75747;53.652;10.168;2024-03-23T06:00:06;7.83;;;3.37;;
85332;SDS011;75747;53.652;10.168;2024-03-23T06:02:44;8.90;;;3.33;;
85332;SDS011;75747;53.652;10.168;2024-03-23T06:05:13;4.77;;;2.90;;
85332;SDS011;75747;53.652;10.168;2024-03-23T06:07:38;15.87;;;3.10;;
85332;SDS011;75747;53.652;10.168;2024-03-23T06:10:04;7.03;;;3.00;;
85332;SDS011;75747;53.652;10.168;2024-03-23T06:12:31;7.80;;;3.83;;
85332;SDS011;75747;53.652;10.168;2024-03-23T06:14:57;6.37;;;2.83;;
85332;SDS011;75747;53.652;10.168;2024-03-23T06:17:22;4.60;;;2.87;;
85332;SDS011;75747;53.652;10.168;2024-03-23T06:19:48;8.13;;;3.23;;
85332;SDS011;75747;53.652;10.168;2024-03-23T06:22:14;5.80;;;3.13;;
85332;SDS011;75747;53.652;10.168;2024-03-23T06:24:40;3.43;;;2.37;;
85332;SDS011;75747;53.652;10.168;2024-03-23T06:27:05;5.63;;;2.60;;
85332;SDS011;75747;53.652;10.168;2024-03-23T06:29:31;14.47;;;3.50;;
85332;SDS011;75747;53.652;10.168;2024-03-23T06:31:57;10.30;;;3.17;;
85332;SDS011;75747;53.652;10.168;2024-03-23T06:34:23;21.73;;;4.10;;
85332;SDS011;75747;53.652;10.168;2024-03-23T06:36:49;8.87;;;3.13;;
85332;SDS011;75747;53.652;10.168;2024-03-23T06:39:15;18.13;;;3.73;;
85332;SDS011;75747;53.652;10.168;2024-03-23T06:41:46;4.43;;;3.20;;
85332;SDS011;75747;53.652;10.168;2024-03-23T06:44:17;11.27;;;3.40;;
85332;SDS011;75747;53.652;10.168;2024-03-23T06:46:43;5.43;;;2.53;;
85332;SDS011;75747;53.652;10.168;2024-03-23T06:49:09;8.23;;;2.97;;
85332;SDS011;75747;53.652;10.168;2024-03-23T06:51:35;8.20;;;2.80;;
85332;SDS011;75747;53.652;10.168;2024-03-23T06:54:02;6.30;;;2.90;;
85332;SDS011;75747;53.652;10.168;2024-03-23T06:56:31;9.00;;;3.00;;
85332;SDS011;75747;53.652;10.168;2024-03-23T06:58:57;13.07;;;3.67;;
85332;SDS011;75747;53.652;10.168;2024-03-23T07:01:23;8.73;;;3.50;;
85332;SDS011;75747;53.652;10.168;2024-03-23T07:03:48;9.87;;;3.07;;
85332;SDS011;75747;53.652;10.168;2024-03-23T07:06:14;9.77;;;2.93;;
85332;SDS011;75747;53.652;10.168;2024-03-23T07:08:39;11.23;;;3.67;;
85332;SDS011;75747;53.652;10.168;2024-03-23T07:11:05;8.00;;;3.20;;
85332;SDS011;75747;53.652;10.168;2024-03-23T07:13:31;4.73;;;2.97;;
85332;SDS011;75747;53.652;10.168;2024-03-23T07:15:56;12.87;;;3.47;;
85332;SDS011;75747;53.652;10.168;2024-03-23T07:18:25;13.57;;;3.73;;
85332;SDS011;75747;53.652;10.168;2024-03-23T07:20:57;8.47;;;2.97;;
85332;SDS011;75747;53.652;10.168;2024-03-23T07:23:24;4.67;;;2.97;;
85332;SDS011;75747;53.652;10.168;2024-03-23T07:25:59;5.23;;;2.73;;
85332;SDS011;75747;53.652;10.168;2024-03-23T07:28:25;10.93;;;3.97;;
85332;SDS011;75747;53.652;10.168;2024-03-23T07:31:05;5.23;;;2.67;;
85332;SDS011;75747;53.652;10.168;2024-03-23T07:33:34;9.97;;;3.20;;
85332;SDS011;75747;53.652;10.168;2024-03-23T07:36:01;11.90;;;3.17;;
85332;SDS011;75747;53.652;10.168;2024-03-23T07:38:27;11.17;;;3.27;;
85332;SDS011;75747;53.652;10.168;2024-03-23T07:43:48;8.57;;;3.20;;
85332;SDS011;75747;53.652;10.168;2024-03-23T07:46:15;7.37;;;3.37;;
85332;SDS011;75747;53.652;10.168;2024-03-23T07:48:41;9.53;;;3.30;;
85332;SDS011;75747;53.652;10.168;2024-03-23T07:51:10;12.43;;;3.23;;
85332;SDS011;75747;53.652;10.168;2024-03-23T07:53:44;11.60;;;3.87;;
85332;SDS011;75747;53.652;10.168;2024-03-23T07:56:11;8.50;;;3.20;;
85332;SDS011;75747;53.652;10.168;2024-03-23T07:58:37;8.43;;;4.10;;
85332;SDS011;75747;53.652;10.168;2024-03-23T08:01:21;5.13;;;3.00;;
85332;SDS011;75747;53.652;10.168;2024-03-23T08:03:47;11.27;;;3.93;;
85332;SDS011;75747;53.652;10.168;2024-03-23T08:06:18;7.77;;;2.63;;
85332;SDS011;75747;53.652;10.168;2024-03-23T08:08:46;12.50;;;3.50;;
85332;SDS011;75747;53.652;10.168;2024-03-23T08:11:13;8.43;;;2.97;;
85332;SDS011;75747;53.652;10.168;2024-03-23T08:13:39;12.27;;;3.13;;
85332;SDS011;75747;53.652;10.168;2024-03-23T08:16:07;6.93;;;2.87;;
85332;SDS011;75747;53.652;10.168;2024-03-23T08:18:36;9.20;;;4.10;;
85332;SDS011;75747;53.652;10.168;2024-03-23T08:21:03;8.53;;;2.80;;
85332;SDS011;75747;53.652;10.168;2024-03-23T08:23:30;7.73;;;2.83;;
85332;SDS011;75747;53.652;10.168;2024-03-23T08:26:01;10.27;;;3.23;;
85332;SDS011;75747;53.652;10.168;2024-03-23T08:28:31;4.80;;;3.17;;
85332;SDS011;75747;53.652;10.168;2024-03-23T08:31:00;11.20;;;3.40;;
85332;SDS011;75747;53.652;10.168;2024-03-23T08:33:27;9.70;;;2.80;;
85332;SDS011;75747;53.652;10.168;2024-03-23T08:35:53;12.00;;;3.27;;
85332;SDS011;75747;53.652;10.168;2024-03-23T08:38:26;6.50;;;2.90;;
85332;SDS011;75747;53.652;10.168;2024-03-23T08:40:59;14.37;;;3.60;;
85332;SDS011;75747;53.652;10.168;2024-03-23T08:43:28;13.10;;;3.47;;
85332;SDS011;75747;53.652;10.168;2024-03-23T08:46:03;7.20;;;2.50;;
85332;SDS011;75747;53.652;10.168;2024-03-23T08:48:32;10.80;;;3.33;;
85332;SDS011;75747;53.652;10.168;2024-03-23T08:51:06;10.70;;;2.63;;
85332;SDS011;75747;53.652;10.168;2024-03-23T08:53:34;14.20;;;3.03;;
85332;SDS011;75747;53.652;10.168;2024-03-23T08:56:00;11.53;;;3.83;;
85332;SDS011;75747;53.652;10.168;2024-03-23T08:58:27;10.13;;;3.27;;
85332;SDS011;75747;53.652;10.168;2024-03-23T09:00:54;7.67;;;2.63;;
85332;SDS011;75747;53.652;10.168;2024-03-23T09:03:24;13.73;;;2.97;;
85332;SDS011;75747;53.652;10.168;2024-03-23T09:05:50;8.73;;;3.17;;
85332;SDS011;75747;53.652;10.168;2024-03-23T09:08:16;12.23;;;3.50;;
85332;SDS011;75747;53.652;10.168;2024-03-23T09:10:42;6.93;;;3.10;;
85332;SDS011;75747;53.652;10.168;2024-03-23T09:13:08;6.53;;;2.70;;
85332;SDS011;75747;53.652;10.168;2024-03-23T09:15:34;5.30;;;2.60;;
85332;SDS011;75747;53.652;10.168;2024-03-23T09:18:02;11.17;;;2.93;;
85332;SDS011;75747;53.652;10.168;2024-03-23T09:20:28;9.70;;;3.80;;
85332;SDS011;75747;53.652;10.168;2024-03-23T09:22:57;12.50;;;3.47;;
85332;SDS011;75747;53.652;10.168;2024-03-23T09:25:22;11.00;;;2.73;;
85332;SDS011;75747;53.652;10.168;2024-03-23T09:27:48;9.37;;;3.30;;
85332;SDS011;75747;53.652;10.168;2024-03-23T09:30:14;7.60;;;2.87;;
85332;SDS011;75747;53.652;10.168;2024-03-23T09:32:44;9.20;;;3.10;;
85332;SDS011;75747;53.652;10.168;2024-03-23T09:35:10;3.00;;;2.23;;
85332;SDS011;75747;53.652;10.168;2024-03-23T09:37:36;7.37;;;2.80;;
85332;SDS011;75747;53.652;10.168;2024-03-23T09:40:05;5.80;;;2.70;;
85332;SDS011;75747;53.652;10.168;2024-03-23T09:42:34;6.80;;;3.17;;
85332;SDS011;75747;53.652;10.168;2024-03-23T09:45:00;4.87;;;2.57;;
85332;SDS011;75747;53.652;10.168;2024-03-23T09:47:26;8.40;;;2.17;;
85332;SDS011;75747;53.652;10.168;2024-03-23T09:49:52;6.67;;;2.50;;
85332;SDS011;75747;53.652;10.168;2024-03-23T09:52:19;8.40;;;3.10;;
85332;SDS011;75747;53.652;10.168;2024-03-23T09:54:45;5.30;;;2.40;;
85332;SDS011;75747;53.652;10.168;2024-03-23T09:57:10;4.23;;;2.80;;
85332;SDS011;75747;53.652;10.168;2024-03-23T09:59:36;4.80;;;2.63;;
85332;SDS011;75747;53.652;10.168;2024-03-23T10:02:01;9.47;;;2.60;;
85332;SDS011;75747;53.652;10.168;2024-03-23T10:04:40;2.20;;;2.00;;
85332;SDS011;75747;53.652;10.168;2024-03-23T10:07:18;5.17;;;2.20;;
85332;SDS011;75747;53.652;10.168;2024-03-23T10:09:44;10.40;;;2.80;;
85332;SDS011;75747;53.652;10.168;2024-03-23T10:12:12;10.03;;;2.90;;
85332;SDS011;75747;53.652;10.168;2024-03-23T10:14:42;8.30;;;2.67;;
85332;SDS011;75747;53.652;10.168;2024-03-23T10:17:18;7.73;;;2.47;;
85332;SDS011;75747;53.652;10.168;2024-03-23T10:19:46;7.47;;;2.30;;
85332;SDS011;75747;53.652;10.168;2024-03-23T10:22:15;4.60;;;2.20;;
85332;SDS011;75747;53.652;10.168;2024-03-23T10:24:47;5.90;;;2.50;;
85332;SDS011;75747;53.652;10.168;2024-03-23T10:27:17;6.23;;;2.23;;
85332;SDS011;75747;53.652;10.168;2024-03-23T10:29:47;4.77;;;2.53;;
85332;SDS011;75747;53.652;10.168;2024-03-23T10:32:14;7.47;;;2.23;;
85332;SDS011;75747;53.652;10.168;2024-03-23T10:34:41;10.07;;;2.30;;
85332;SDS011;75747;53.652;10.168;2024-03-23T10:37:07;7.07;;;2.30;;
85332;SDS011;75747;53.652;10.168;2024-03-23T10:39:36;9.50;;;2.70;;
85332;SDS011;75747;53.652;10.168;2024-03-23T10:42:06;6.93;;;2.70;;
85332;SDS011;75747;53.652;10.168;2024-03-23T10:44:33;10.30;;;2.93;;
85332;SDS011;75747;53.652;10.168;2024-03-23T10:46:59;6.53;;;2.60;;
85332;SDS011;75747;53.652;10.168;2024-03-23T10:49:29;6.73;;;2.47;;
85332;SDS011;75747;53.652;10.168;2024-03-23T10:51:59;6.57;;;2.77;;
85332;SDS011;75747;53.652;10.168;2024-03-23T10:54:25;4.57;;;2.30;;
85332;SDS011;75747;53.652;10.168;2024-03-23T10:56:57;8.80;;;2.63;;
85332;SDS011;75747;53.652;10.168;2024-03-23T10:59:25;8.20;;;2.63;;
85332;SDS011;75747;53.652;10.168;2024-03-23T11:01:55;3.20;;;2.20;;
85332;SDS011;75747;53.652;10.168;2024-03-23T11:04:37;4.10;;;2.27;;
85332;SDS011;75747;53.652;10.168;2024-03-23T11:09:51;6.90;;;1.90;;
85332;SDS011;75747;53.652;10.168;2024-03-23T11:17:29;4.07;;;2.50;;
85332;SDS011;75747;53.652;10.168;2024-03-23T11:19:56;2.83;;;2.00;;
85332;SDS011;75747;53.652;10.168;2024-03-23T11:25:14;3.07;;;1.90;;
85332;SDS011;75747;53.652;10.168;2024-03-23T11:27:48;4.17;;;2.20;;
85332;SDS011;75747;53.652;10.168;2024-03-23T11:32:45;3.67;;;1.90;;
85332;SDS011;75747;53.652;10.168;2024-03-23T11:35:27;2.13;;;1.70;;
85332;SDS011;75747;53.652;10.168;2024-03-23T11:38:02;3.83;;;2.40;;
85332;SDS011;75747;53.652;10.168;2024-03-23T11:40:29;8.83;;;2.47;;
85332;SDS011;75747;53.652;10.168;2024-03-23T11:42:57;6.63;;;2.30;;
85332;SDS011;75747;53.652;10.168;2024-03-23T11:45:24;5.67;;;2.33;;
85332;SDS011;75747;53.652;10.168;2024-03-23T11:48:01;6.97;;;2.63;;
85332;SDS011;75747;53.652;10.168;2024-03-23T11:50:30;5.50;;;2.20;;
85332;SDS011;75747;53.652;10.168;2024-03-23T11:53:13;4.00;;;1.73;;
85332;SDS011;75747;53.652;10.168;2024-03-23T11:58:24;2.50;;;1.80;;
85332;SDS011;75747;53.652;10.168;2024-03-23T12:03:17;6.50;;;2.63;;
85332;SDS011;75747;53.652;10.168;2024-03-23T12:05:49;5.40;;;2.00;;
85332;SDS011;75747;53.652;10.168;2024-03-23T12:08:28;5.00;;;2.30;;
85332;SDS011;75747;53.652;10.168;2024-03-23T12:11:07;5.13;;;2.03;;
85332;SDS011;75747;53.652;10.168;2024-03-23T12:13:34;2.00;;;1.90;;
85332;SDS011;75747;53.652;10.168;2024-03-23T12:16:10;2.20;;;1.70;;
85332;SDS011;75747;53.652;10.168;2024-03-23T12:18:48;5.27;;;1.70;;
85332;SDS011;75747;53.652;10.168;2024-03-23T12:21:16;1.83;;;1.73;;
85332;SDS011;75747;53.652;10.168;2024-03-23T12:23:42;5.03;;;1.90;;
85332;SDS011;75747;53.652;10.168;2024-03-23T12:26:12;1.70;;;1.60;;
85332;SDS011;75747;53.652;10.168;2024-03-23T12:28:38;1.77;;;1.60;;
85332;SDS011;75747;53.652;10.168;2024-03-23T12:31:04;1.70;;;1.60;;
85332;SDS011;75747;53.652;10.168;2024-03-23T12:33:30;3.03;;;1.80;;
85332;SDS011;75747;53.652;10.168;2024-03-23T12:35:59;2.93;;;1.77;;
85332;SDS011;75747;53.652;10.168;2024-03-23T12:38:25;6.00;;;2.20;;
85332;SDS011;75747;53.652;10.168;2024-03-23T12:40:51;1.70;;;1.60;;
85332;SDS011;75747;53.652;10.168;2024-03-23T12:43:17;1.83;;;1.70;;
85332;SDS011;75747;53.652;10.168;2024-03-23T12:45:49;1.97;;;1.67;;
85332;SDS011;75747;53.652;10.168;2024-03-23T12:48:15;2.63;;;1.80;;
85332;SDS011;75747;53.652;10.168;2024-03-23T12:50:41;3.27;;;2.17;;
85332;SDS011;75747;53.652;10.168;2024-03-23T12:53:07;1.80;;;1.70;;
85332;SDS011;75747;53.652;10.168;2024-03-23T12:55:36;1.80;;;1.70;;
85332;SDS011;75747;53.652;10.168;2024-03-23T12:58:01;2.10;;;1.90;;
85332;SDS011;75747;53.652;10.168;2024-03-23T13:00:28;1.70;;;1.60;;
85332;SDS011;75747;53.652;10.168;2024-03-23T13:02:54;2.40;;;1.60;;
85332;SDS011;75747;53.652;10.168;2024-03-23T13:05:20;1.60;;;1.50;;
85332;SDS011;75747;53.652;10.168;2024-03-23T13:07:45;1.60;;;1.50;;
85332;SDS011;75747;53.652;10.168;2024-03-23T13:10:11;1.73;;;1.50;;
85332;SDS011;75747;53.652;10.168;2024-03-23T13:12:37;1.77;;;1.67;;
85332;SDS011;75747;53.652;10.168;2024-03-23T13:15:02;1.57;;;1.47;;
85332;SDS011;75747;53.652;10.168;2024-03-23T13:17:29;1.63;;;1.50;;
85332;SDS011;75747;53.652;10.168;2024-03-23T13:19:54;3.87;;;1.67;;
85332;SDS011;75747;53.652;10.168;2024-03-23T13:22:21;1.70;;;1.60;;
85332;SDS011;75747;53.652;10.168;2024-03-23T13:24:47;2.17;;;1.90;;
85332;SDS011;75747;53.652;10.168;2024-03-23T13:27:13;1.70;;;1.60;;
85332;SDS011;75747;53.652;10.168;2024-03-23T13:29:39;3.37;;;1.87;;
85332;SDS011;75747;53.652;10.168;2024-03-23T13:32:04;1.87;;;1.60;;
85332;SDS011;75747;53.652;10.168;2024-03-23T13:34:31;1.77;;;1.67;;
85332;SDS011;75747;53.652;10.168;2024-03-23T13:36:58;2.37;;;1.70;;
85332;SDS011;75747;53.652;10.168;2024-03-23T13:39:24;1.80;;;1.70;;
85332;SDS011;75747;53.652;10.168;2024-03-23T13:41:52;5.50;;;2.00;;
85332;SDS011;75747;53.652;10.168;2024-03-23T13:44:19;1.90;;;1.80;;
85332;SDS011;75747;53.652;10.168;2024-03-23T13:46:45;3.00;;;1.70;;
85332;SDS011;75747;53.652;10.168;2024-03-23T13:51:51;3.80;;;1.70;;
85332;SDS011;75747;53.652;10.168;2024-03-23T13:54:18;3.87;;;1.60;;
85332;SDS011;75747;53.652;10.168;2024-03-23T13:56:44;2.23;;;1.70;;
85332;SDS011;75747;53.652;10.168;2024-03-23T13:59:09;1.93;;;1.73;;
85332;SDS011;75747;53.652;10.168;2024-03-23T14:01:35;1.97;;;1.80;;
85332;SDS011;75747;53.652;10.168;2024-03-23T14:04:01;3.40;;;1.90;;
85332;SDS011;75747;53.652;10.168;2024-03-23T14:06:26;5.63;;;2.10;;
85332;SDS011;75747;53.652;10.168;2024-03-23T14:08:52;2.40;;;1.77;;
85332;SDS011;75747;53.652;10.168;2024-03-23T14:11:18;2.20;;;1.70;;
85332;SDS011;75747;53.652;10.168;2024-03-23T14:13:44;3.30;;;1.87;;
85332;SDS011;75747;53.652;10.168;2024-03-23T14:16:10;3.27;;;2.13;;
85332;SDS011;75747;53.652;10.168;2024-03-23T14:18:36;2.50;;;1.67;;
85332;SDS011;75747;53.652;10.168;2024-03-23T14:21:02;3.27;;;1.80;;
85332;SDS011;75747;53.652;10.168;2024-03-23T14:23:28;2.43;;;2.00;;
85332;SDS011;75747;53.652;10.168;2024-03-23T14:25:55;2.80;;;1.80;;
85332;SDS011;75747;53.652;10.168;2024-03-23T14:28:21;1.97;;;1.87;;
85332;SDS011;75747;53.652;10.168;2024-03-23T14:30:48;4.17;;;1.83;;
85332;SDS011;75747;53.652;10.168;2024-03-23T14:33:15;1.90;;;1.80;;
85332;SDS011;75747;53.652;10.168;2024-03-23T14:35:53;1.93;;;1.83;;
85332;SDS011;75747;53.652;10.168;2024-03-23T14:38:20;3.57;;;2.10;;
85332;SDS011;75747;53.652;10.168;2024-03-23T14:40:46;1.80;;;1.70;;
85332;SDS011;75747;53.652;10.168;2024-03-23T14:43:12;4.87;;;1.90;;
85332;SDS011;75747;53.652;10.168;2024-03-23T14:45:48;4.60;;;2.13;;
85332;SDS011;75747;53.652;10.168;2024-03-23T14:48:32;2.83;;;1.97;;
85332;SDS011;75747;53.652;10.168;2024-03-23T14:50:59;3.37;;;2.10;;
85332;SDS011;75747;53.652;10.168;2024-03-23T14:53:25;2.53;;;2.30;;
85332;SDS011;75747;53.652;10.168;2024-03-23T14:55:55;2.17;;;1.97;;
85332;SDS011;75747;53.652;10.168;2024-03-23T14:58:25;4.53;;;2.30;;
85332;SDS011;75747;53.652;10.168;2024-03-23T15:00:51;9.17;;;2.33;;
85332;SDS011;75747;53.652;10.168;2024-03-23T15:03:18;3.93;;;2.17;;
85332;SDS011;75747;53.652;10.168;2024-03-23T15:06:01;5.47;;;1.93;;
85332;SDS011;75747;53.652;10.168;2024-03-23T15:08:27;2.20;;;2.00;;
85332;SDS011;75747;53.652;10.168;2024-03-23T15:10:54;3.50;;;2.10;;
85332;SDS011;75747;53.652;10.168;2024-03-23T15:13:19;2.30;;;1.87;;
85332;SDS011;75747;53.652;10.168;2024-03-23T15:15:47;4.40;;;1.90;;
85332;SDS011;75747;53.652;10.168;2024-03-23T15:18:15;3.67;;;2.00;;
85332;SDS011;75747;53.652;10.168;2024-03-23T15:20:41;5.07;;;2.07;;
85332;SDS011;75747;53.652;10.168;2024-03-23T15:23:16;2.90;;;1.77;;
85332;SDS011;75747;53.652;10.168;2024-03-23T15:25:41;5.20;;;2.27;;
85332;SDS011;75747;53.652;10.168;2024-03-23T15:28:07;2.23;;;1.77;;
85332;SDS011;75747;53.652;10.168;2024-03-23T15:30:33;2.10;;;1.90;;
85332;SDS011;75747;53.652;10.168;2024-03-23T15:32:58;2.80;;;2.03;;
85332;SDS011;75747;53.652;10.168;2024-03-23T15:35:24;6.43;;;2.00;;
85332;SDS011;75747;53.652;10.168;2024-03-23T15:37:50;2.70;;;1.90;;
85332;SDS011;75747;53.652;10.168;2024-03-23T15:40:16;4.33;;;1.60;;
85332;SDS011;75747;53.652;10.168;2024-03-23T15:42:42;2.30;;;2.00;;
85332;SDS011;75747;53.652;10.168;2024-03-23T15:45:08;2.50;;;1.80;;
85332;SDS011;75747;53.652;10.168;2024-03-23T15:47:34;1.60;;;1.50;;
85332;SDS011;75747;53.652;10.168;2024-03-23T15:50:00;2.50;;;1.80;;